createdAt,value
2019-03-18T00:00:07.491Z,4.58
2019-03-18T00:01:07.469Z,4.66
2019-03-18T00:02:07.458Z,4.6
2019-03-18T00:03:07.449Z,4.66
2019-03-18T00:04:07.448Z,4.65
2019-03-18T00:05:07.420Z,4.65
2019-03-18T00:06:07.406Z,4.66
2019-03-18T00:07:07.383Z,4.58
2019-03-18T00:08:07.365Z,4.65
2019-03-18T00:09:07.361Z,4.65
2019-03-18T00:10:07.340Z,4.58
2019-03-18T00:11:07.348Z,4.47
2019-03-18T00:12:07.311Z,4.51
2019-03-18T00:13:07.303Z,4.52
2019-03-18T00:14:07.303Z,4.48
2019-03-18T00:15:07.021Z,4.48
2019-03-18T00:16:07.253Z,4.5
2019-03-18T00:17:07.235Z,4.47
2019-03-18T00:18:07.229Z,4.51
2019-03-18T00:19:07.207Z,4.34
2019-03-18T00:20:07.194Z,4.44
2019-03-18T00:21:07.191Z,4.48
2019-03-18T00:22:07.168Z,4.4
2019-03-18T00:23:07.151Z,4.41
2019-03-18T00:24:07.138Z,4.44
2019-03-18T00:25:07.124Z,4.34
2019-03-18T00:26:07.108Z,4.4
2019-03-18T00:27:07.094Z,4.41
2019-03-18T00:28:07.079Z,4.4
2019-03-18T00:29:07.153Z,4.34
2019-03-18T00:30:07.056Z,4.33
2019-03-18T00:31:07.039Z,4.34
2019-03-18T00:32:07.022Z,4.29
2019-03-18T00:33:08.098Z,4.29
2019-03-18T00:34:06.995Z,4.36
2019-03-18T00:35:06.982Z,4.36
2019-03-18T00:36:06.965Z,4.34
2019-03-18T00:37:06.946Z,4.36
2019-03-18T00:38:06.937Z,4.4
2019-03-18T00:39:06.915Z,4.33
2019-03-18T00:40:06.909Z,4.32
2019-03-18T00:41:06.894Z,4.32
2019-03-18T00:42:06.875Z,4.3
2019-03-18T00:43:06.859Z,4.27
2019-03-18T00:44:06.862Z,4.26
2019-03-18T00:45:19.494Z,4.3
2019-03-18T00:46:06.861Z,4.22
2019-03-18T00:47:06.803Z,4.27
2019-03-18T00:48:06.792Z,4.26
2019-03-18T00:49:06.775Z,4.29
2019-03-18T00:50:06.756Z,4.32
2019-03-18T00:51:06.741Z,4.26
2019-03-18T00:52:06.727Z,4.29
2019-03-18T00:53:06.715Z,4.26
2019-03-18T00:54:06.700Z,4.23
2019-03-18T00:55:06.687Z,4.2
2019-03-18T00:56:06.670Z,4.24
2019-03-18T00:57:06.665Z,4.26
2019-03-18T00:58:06.646Z,4.14
2019-03-18T00:59:06.624Z,4.24
2019-03-18T01:00:06.612Z,4.18
2019-03-18T01:01:06.600Z,4.2
2019-03-18T01:02:06.590Z,4.18
2019-03-18T01:03:06.572Z,4.15
2019-03-18T01:04:06.551Z,4.14
2019-03-18T01:05:06.552Z,4.14
2019-03-18T01:06:06.521Z,4.05
2019-03-18T01:07:06.512Z,4.09
2019-03-18T01:08:06.500Z,4.18
2019-03-18T01:09:06.477Z,4.08
2019-03-18T01:10:06.473Z,4.08
2019-03-18T01:11:06.447Z,4.11
2019-03-18T01:12:06.436Z,4.16
2019-03-18T01:13:06.498Z,4.12
2019-03-18T01:14:06.405Z,4.11
2019-03-18T01:15:06.415Z,4.09
2019-03-18T01:16:06.376Z,4.15
2019-03-18T01:17:06.370Z,4.08
2019-03-18T01:18:06.345Z,4.09
2019-03-18T01:19:06.329Z,4.06
2019-03-18T01:20:06.314Z,4.08
2019-03-18T01:21:06.300Z,4.06
2019-03-18T01:22:06.286Z,4.09
2019-03-18T01:23:06.271Z,4.12
2019-03-18T01:24:06.258Z,4.09
2019-03-18T01:25:06.242Z,4.14
2019-03-18T01:26:06.234Z,4.08
2019-03-18T01:27:06.218Z,4.08
2019-03-18T01:28:06.202Z,4.05
2019-03-18T01:29:06.186Z,4.05
2019-03-18T01:30:06.169Z,4.15
2019-03-18T01:31:06.208Z,4.11
2019-03-18T01:32:06.139Z,4.05
2019-03-18T01:33:06.121Z,4.08
2019-03-18T01:34:06.113Z,4.12
2019-03-18T01:35:06.093Z,4.04
2019-03-18T01:36:05.860Z,4.08
2019-03-18T01:37:06.063Z,4.09
2019-03-18T01:38:06.048Z,4.09
2019-03-18T01:39:06.031Z,4.06
2019-03-18T01:40:05.782Z,4.11
2019-03-18T01:41:05.999Z,4.05
2019-03-18T01:42:05.992Z,4.08
2019-03-18T01:43:05.739Z,4.05
2019-03-18T01:44:05.956Z,4.04
2019-03-18T01:45:05.951Z,4.05
2019-03-18T01:46:05.929Z,3.97
2019-03-18T01:47:05.922Z,4.02
2019-03-18T01:48:05.901Z,3.96
2019-03-18T01:49:05.886Z,3.96
2019-03-18T01:50:05.626Z,4.04
2019-03-18T01:51:05.853Z,4
2019-03-18T01:52:05.839Z,3.93
2019-03-18T01:53:05.821Z,3.93
2019-03-18T01:54:05.806Z,3.94
2019-03-18T01:55:05.562Z,3.9
2019-03-18T01:56:05.781Z,3.91
2019-03-18T01:57:05.766Z,3.88
2019-03-18T01:58:05.771Z,4.02
2019-03-18T01:59:05.777Z,3.91
2019-03-18T02:00:05.724Z,3.91
2019-03-18T02:01:05.708Z,3.9
2019-03-18T02:02:05.686Z,3.91
2019-03-18T02:03:05.672Z,3.96
2019-03-18T02:04:05.661Z,3.93
2019-03-18T02:05:05.642Z,3.96
2019-03-18T02:06:05.627Z,3.94
2019-03-18T02:07:05.614Z,3.94
2019-03-18T02:08:05.665Z,3.96
2019-03-18T02:09:05.589Z,3.94
2019-03-18T02:10:05.570Z,3.94
2019-03-18T02:11:05.551Z,3.94
2019-03-18T02:12:05.294Z,3.96
2019-03-18T02:13:05.521Z,3.98
2019-03-18T02:14:05.505Z,3.91
2019-03-18T02:15:05.493Z,3.86
2019-03-18T02:16:05.481Z,3.84
2019-03-18T02:17:05.490Z,3.84
2019-03-18T02:18:05.450Z,3.88
2019-03-18T02:19:05.445Z,3.88
2019-03-18T02:20:05.437Z,3.87
2019-03-18T02:21:05.404Z,3.84
2019-03-18T02:22:05.391Z,3.87
2019-03-18T02:23:05.374Z,3.88
2019-03-18T02:24:05.356Z,3.87
2019-03-18T02:25:05.101Z,3.73
2019-03-18T02:26:05.339Z,3.87
2019-03-18T02:27:05.309Z,3.93
2019-03-18T02:28:05.389Z,3.9
2019-03-18T02:29:05.283Z,3.91
2019-03-18T02:30:05.325Z,3.9
2019-03-18T02:31:05.288Z,3.86
2019-03-18T02:32:05.238Z,3.86
2019-03-18T02:33:05.227Z,3.91
2019-03-18T02:34:05.324Z,3.88
2019-03-18T02:35:05.244Z,3.9
2019-03-18T02:36:05.224Z,3.93
2019-03-18T02:37:05.167Z,3.88
2019-03-18T02:38:05.202Z,3.9
2019-03-18T02:39:05.156Z,3.83
2019-03-18T02:40:05.318Z,3.83
2019-03-18T02:41:05.103Z,3.78
2019-03-18T02:42:05.114Z,3.72
2019-03-18T02:43:05.083Z,3.78
2019-03-18T02:44:05.315Z,3.78
2019-03-18T02:45:05.279Z,3.76
2019-03-18T02:46:14.787Z,3.84
2019-03-18T02:47:05.013Z,3.83
2019-03-18T02:48:05.013Z,3.78
2019-03-18T02:49:04.981Z,3.79
2019-03-18T02:50:05.260Z,3.78
2019-03-18T02:51:04.961Z,3.76
2019-03-18T02:52:04.938Z,3.78
2019-03-18T02:53:04.920Z,3.75
2019-03-18T02:54:04.918Z,3.78
2019-03-18T02:55:05.200Z,3.86
2019-03-18T02:56:04.930Z,3.91
2019-03-18T02:57:04.872Z,3.91
2019-03-18T02:58:04.862Z,3.84
2019-03-18T02:59:04.893Z,3.83
2019-03-18T03:00:05.057Z,3.8
2019-03-18T03:01:04.798Z,3.86
2019-03-18T03:02:04.804Z,3.96
2019-03-18T03:03:04.779Z,3.83
2019-03-18T03:04:04.771Z,3.91
2019-03-18T03:05:04.748Z,3.86
2019-03-18T03:06:04.752Z,3.87
2019-03-18T03:07:04.732Z,3.93
2019-03-18T03:08:04.710Z,3.91
2019-03-18T03:09:04.683Z,3.93
2019-03-18T03:10:04.689Z,3.83
2019-03-18T03:11:04.657Z,3.93
2019-03-18T03:12:04.656Z,3.75
2019-03-18T03:13:04.668Z,3.91
2019-03-18T03:14:04.378Z,3.79
2019-03-18T03:15:04.640Z,3.72
2019-03-18T03:16:04.340Z,3.75
2019-03-18T03:17:04.577Z,3.78
2019-03-18T03:18:04.543Z,3.83
2019-03-18T03:19:04.533Z,3.76
2019-03-18T03:20:04.315Z,3.76
2019-03-18T03:21:04.518Z,3.75
2019-03-18T03:22:04.499Z,3.72
2019-03-18T03:23:04.476Z,3.7
2019-03-18T03:24:04.262Z,3.76
2019-03-18T03:25:04.474Z,3.75
2019-03-18T03:26:04.417Z,3.72
2019-03-18T03:27:04.402Z,3.69
2019-03-18T03:28:04.399Z,3.62
2019-03-18T03:29:04.439Z,3.66
2019-03-18T03:30:04.619Z,3.7
2019-03-18T03:31:04.373Z,3.62
2019-03-18T03:32:04.356Z,3.66
2019-03-18T03:33:04.374Z,3.72
2019-03-18T03:34:04.327Z,3.66
2019-03-18T03:35:04.358Z,3.73
2019-03-18T03:36:04.288Z,3.69
2019-03-18T03:37:04.246Z,3.7
2019-03-18T03:38:04.293Z,3.68
2019-03-18T03:39:04.228Z,3.69
2019-03-18T03:40:04.228Z,3.7
2019-03-18T03:41:04.248Z,3.75
2019-03-18T03:42:04.231Z,3.69
2019-03-18T03:43:04.160Z,3.73
2019-03-18T03:44:04.165Z,3.65
2019-03-18T03:45:04.136Z,3.66
2019-03-18T03:46:04.116Z,3.62
2019-03-18T03:47:04.135Z,3.66
2019-03-18T03:48:04.097Z,3.69
2019-03-18T03:49:04.096Z,3.72
2019-03-18T03:50:04.061Z,3.65
2019-03-18T03:51:04.047Z,3.72
2019-03-18T03:52:04.031Z,3.72
2019-03-18T03:53:04.011Z,3.7
2019-03-18T03:54:03.994Z,3.72
2019-03-18T03:55:04.013Z,3.7
2019-03-18T03:56:03.968Z,3.7
2019-03-18T03:57:03.962Z,3.7
2019-03-18T03:58:03.937Z,3.72
2019-03-18T03:59:03.924Z,3.75
2019-03-18T04:00:03.913Z,3.72
2019-03-18T04:01:03.908Z,3.69
2019-03-18T04:02:03.887Z,3.72
2019-03-18T04:03:03.632Z,3.72
2019-03-18T04:04:03.878Z,3.73
2019-03-18T04:05:03.839Z,3.73
2019-03-18T04:06:03.814Z,3.7
2019-03-18T04:07:03.866Z,3.69
2019-03-18T04:08:03.808Z,3.76
2019-03-18T04:09:03.768Z,3.75
2019-03-18T04:10:03.767Z,3.76
2019-03-18T04:11:07.980Z,3.83
2019-03-18T04:12:03.723Z,3.76
2019-03-18T04:13:03.713Z,3.78
2019-03-18T04:14:03.692Z,3.76
2019-03-18T04:15:03.704Z,3.83
2019-03-18T04:16:03.701Z,3.7
2019-03-18T04:17:07.565Z,3.78
2019-03-18T04:18:03.670Z,3.76
2019-03-18T04:19:03.678Z,3.76
2019-03-18T04:20:03.597Z,3.7
2019-03-18T04:21:03.589Z,3.7
2019-03-18T04:22:03.575Z,3.78
2019-03-18T04:23:03.628Z,3.79
2019-03-18T04:24:03.545Z,3.8
2019-03-18T04:25:03.682Z,3.75
2019-03-18T04:26:03.507Z,3.83
2019-03-18T04:27:03.484Z,3.78
2019-03-18T04:28:03.478Z,3.78
2019-03-18T04:29:03.461Z,3.75
2019-03-18T04:30:03.448Z,3.8
2019-03-18T04:31:03.437Z,3.84
2019-03-18T04:32:03.414Z,3.86
2019-03-18T04:33:03.159Z,3.93
2019-03-18T04:34:03.383Z,3.93
2019-03-18T04:35:03.384Z,3.91
2019-03-18T04:36:03.361Z,3.98
2019-03-18T04:37:03.337Z,4.06
2019-03-18T04:38:03.318Z,4.14
2019-03-18T04:39:03.314Z,4.09
2019-03-18T04:40:03.283Z,4.14
2019-03-18T04:41:03.269Z,4.27
2019-03-18T04:42:03.302Z,4.32
2019-03-18T04:43:03.240Z,4.4
2019-03-18T04:44:03.229Z,4.4
2019-03-18T04:45:03.299Z,4.47
2019-03-18T04:46:03.198Z,4.6
2019-03-18T04:47:16.128Z,4.7
2019-03-18T04:48:03.165Z,4.63
2019-03-18T04:49:03.152Z,4.63
2019-03-18T04:50:03.134Z,4.65
2019-03-18T04:51:03.119Z,4.63
2019-03-18T04:52:03.142Z,4.62
2019-03-18T04:53:03.094Z,4.6
2019-03-18T04:54:03.160Z,4.62
2019-03-18T04:55:03.063Z,4.67
2019-03-18T04:56:03.046Z,4.59
2019-03-18T04:57:03.027Z,4.6
2019-03-18T04:58:03.064Z,4.66
2019-03-18T04:59:02.999Z,4.62
2019-03-18T05:00:02.987Z,4.62
2019-03-18T05:01:02.973Z,4.51
2019-03-18T05:02:02.958Z,4.48
2019-03-18T05:03:02.943Z,4.54
2019-03-18T05:04:02.690Z,4.59
2019-03-18T05:05:02.913Z,4.44
2019-03-18T05:06:02.895Z,4.54
2019-03-18T05:07:02.881Z,4.51
2019-03-18T05:08:02.904Z,4.5
2019-03-18T05:09:02.855Z,4.5
2019-03-18T05:10:02.604Z,4.52
2019-03-18T05:11:02.822Z,4.5
2019-03-18T05:12:02.807Z,4.52
2019-03-18T05:13:02.803Z,4.51
2019-03-18T05:14:03.011Z,4.54
2019-03-18T05:15:02.880Z,4.55
2019-03-18T05:16:02.750Z,4.51
2019-03-18T05:17:02.747Z,4.59
2019-03-18T05:18:02.727Z,4.5
2019-03-18T05:19:02.710Z,4.54
2019-03-18T05:20:02.760Z,4.62
2019-03-18T05:21:02.691Z,4.67
2019-03-18T05:22:02.662Z,4.72
2019-03-18T05:23:02.706Z,4.66
2019-03-18T05:24:02.640Z,4.69
2019-03-18T05:25:02.702Z,4.72
2019-03-18T05:26:02.605Z,4.77
2019-03-18T05:27:02.591Z,4.89
2019-03-18T05:28:02.583Z,4.89
2019-03-18T05:29:02.565Z,5.03
2019-03-18T05:30:02.742Z,5.09
2019-03-18T05:31:02.527Z,5.2
2019-03-18T05:32:04.941Z,5.13
2019-03-18T05:33:02.575Z,5.27
2019-03-18T05:34:02.501Z,5.35
2019-03-18T05:35:02.745Z,5.38
2019-03-18T05:36:02.462Z,5.48
2019-03-18T05:37:02.450Z,5.46
2019-03-18T05:38:02.434Z,5.61
2019-03-18T05:39:02.413Z,5.71
2019-03-18T05:40:02.405Z,5.76
2019-03-18T05:41:02.390Z,5.91
2019-03-18T05:42:02.371Z,5.99
2019-03-18T05:43:02.356Z,6.06
2019-03-18T05:44:02.358Z,6.19
2019-03-18T05:45:02.342Z,6.28
2019-03-18T05:46:02.313Z,6.3
2019-03-18T05:47:02.304Z,6.3
2019-03-18T05:48:02.288Z,6.34
2019-03-18T05:49:02.276Z,6.4
2019-03-18T05:50:02.260Z,6.43
2019-03-18T05:51:02.264Z,6.43
2019-03-18T05:52:02.252Z,6.38
2019-03-18T05:53:02.245Z,6.4
2019-03-18T05:54:02.208Z,6.54
2019-03-18T05:55:02.196Z,6.48
2019-03-18T05:56:02.198Z,6.54
2019-03-18T05:57:02.171Z,6.48
2019-03-18T05:58:02.156Z,6.49
2019-03-18T05:59:02.149Z,6.49
2019-03-18T06:00:02.126Z,6.44
2019-03-18T06:01:02.118Z,6.51
2019-03-18T06:02:02.107Z,6.55
2019-03-18T06:03:02.086Z,6.58
2019-03-18T06:04:02.085Z,6.52
2019-03-18T06:05:02.060Z,6.56
2019-03-18T06:06:02.049Z,6.61
2019-03-18T06:07:02.039Z,6.56
2019-03-18T06:08:02.027Z,6.55
2019-03-18T06:09:02.008Z,6.59
2019-03-18T06:10:02.077Z,6.64
2019-03-18T06:11:01.983Z,6.59
2019-03-18T06:12:01.971Z,6.67
2019-03-18T06:13:01.981Z,6.7
2019-03-18T06:14:01.949Z,6.67
2019-03-18T06:15:01.932Z,6.67
2019-03-18T06:16:01.916Z,6.71
2019-03-18T06:17:01.658Z,6.67
2019-03-18T06:18:01.888Z,6.71
2019-03-18T06:19:04.971Z,6.79
2019-03-18T06:20:01.987Z,6.67
2019-03-18T06:21:01.852Z,6.71
2019-03-18T06:22:01.841Z,6.7
2019-03-18T06:23:01.823Z,6.7
2019-03-18T06:24:01.812Z,6.69
2019-03-18T06:25:01.798Z,6.7
2019-03-18T06:26:01.785Z,6.76
2019-03-18T06:27:01.774Z,6.79
2019-03-18T06:28:01.763Z,6.77
2019-03-18T06:29:01.745Z,6.7
2019-03-18T06:30:01.734Z,6.73
2019-03-18T06:31:01.483Z,6.74
2019-03-18T06:32:01.710Z,6.69
2019-03-18T06:33:01.694Z,6.74
2019-03-18T06:34:01.688Z,6.76
2019-03-18T06:35:01.681Z,6.71
2019-03-18T06:36:01.656Z,6.77
2019-03-18T06:37:01.644Z,6.88
2019-03-18T06:38:01.632Z,6.81
2019-03-18T06:39:01.614Z,6.84
2019-03-18T06:40:01.606Z,6.89
2019-03-18T06:41:01.594Z,7.02
2019-03-18T06:42:01.583Z,7.02
2019-03-18T06:43:01.567Z,7.05
2019-03-18T06:44:01.564Z,7.1
2019-03-18T06:45:01.538Z,7.03
2019-03-18T06:46:01.534Z,7.21
2019-03-18T06:47:01.512Z,7.15
2019-03-18T06:48:11.666Z,7.13
2019-03-18T06:49:01.502Z,7.16
2019-03-18T06:50:01.477Z,7.1
2019-03-18T06:51:01.467Z,7.13
2019-03-18T06:52:01.450Z,7.09
2019-03-18T06:53:01.510Z,7.09
2019-03-18T06:54:01.426Z,7.12
2019-03-18T06:55:01.413Z,7.15
2019-03-18T06:56:01.400Z,7.15
2019-03-18T06:57:01.383Z,7.23
2019-03-18T06:58:01.374Z,7.25
2019-03-18T06:59:01.120Z,7.27
2019-03-18T07:00:01.345Z,7.24
2019-03-18T07:01:01.340Z,7.27
2019-03-18T07:02:01.329Z,7.28
2019-03-18T07:03:01.311Z,7.28
2019-03-18T07:04:01.302Z,7.27
2019-03-18T07:05:01.288Z,7.31
2019-03-18T07:06:01.272Z,7.3
2019-03-18T07:07:01.264Z,7.3
2019-03-18T07:08:01.248Z,7.4
2019-03-18T07:09:01.237Z,7.42
2019-03-18T07:10:01.223Z,7.46
2019-03-18T07:11:01.221Z,7.45
2019-03-18T07:12:01.208Z,7.43
2019-03-18T07:13:01.196Z,7.43
2019-03-18T07:14:01.174Z,7.57
2019-03-18T07:15:01.224Z,7.48
2019-03-18T07:16:02.629Z,7.53
2019-03-18T07:17:01.159Z,7.49
2019-03-18T07:18:01.139Z,7.58
2019-03-18T07:19:01.118Z,7.53
2019-03-18T07:20:01.104Z,7.55
2019-03-18T07:21:01.089Z,7.82
2019-03-18T07:22:01.082Z,7.79
2019-03-18T07:23:01.064Z,7.8
2019-03-18T07:24:01.047Z,7.83
2019-03-18T07:25:01.043Z,7.93
2019-03-18T07:26:01.058Z,7.92
2019-03-18T07:27:01.014Z,8.04
2019-03-18T07:28:01.000Z,8.04
2019-03-18T07:29:00.998Z,8.12
2019-03-18T07:30:00.976Z,8.01
2019-03-18T07:31:00.968Z,8.02
2019-03-18T07:32:00.952Z,8.02
2019-03-18T07:33:00.944Z,8.04
2019-03-18T07:34:02.409Z,8.1
2019-03-18T07:35:00.921Z,8.05
2019-03-18T07:36:00.911Z,8.16
2019-03-18T07:37:00.902Z,8.12
2019-03-18T07:38:00.881Z,8.18
2019-03-18T07:39:00.870Z,8.25
2019-03-18T07:40:00.874Z,8.25
2019-03-18T07:41:00.843Z,8.34
2019-03-18T07:42:00.843Z,8.28
2019-03-18T07:43:00.825Z,8.36
2019-03-18T07:44:00.810Z,8.47
2019-03-18T07:45:00.798Z,8.41
2019-03-18T07:46:00.789Z,8.48
2019-03-18T07:47:00.847Z,8.5
2019-03-18T07:48:00.862Z,8.52
2019-03-18T07:49:00.755Z,8.55
2019-03-18T07:50:00.747Z,8.61
2019-03-18T07:51:00.729Z,8.65
2019-03-18T07:52:00.728Z,8.66
2019-03-18T07:53:00.724Z,8.77
2019-03-18T07:54:00.704Z,8.74
2019-03-18T07:55:00.684Z,8.8
2019-03-18T07:56:00.674Z,8.83
2019-03-18T07:57:00.670Z,8.77
2019-03-18T07:58:00.651Z,8.87
2019-03-18T07:59:00.650Z,8.96
2019-03-18T08:00:00.632Z,8.99
2019-03-18T08:01:00.915Z,9.13
2019-03-18T08:02:00.614Z,9.2
2019-03-18T08:03:03.258Z,9.21
2019-03-18T08:04:00.589Z,9.23
2019-03-18T08:05:00.576Z,9.29
2019-03-18T08:06:00.566Z,9.31
2019-03-18T08:07:00.551Z,9.35
2019-03-18T08:08:00.545Z,9.31
2019-03-18T08:09:00.535Z,9.29
2019-03-18T08:10:00.536Z,9.33
2019-03-18T08:11:00.520Z,9.31
2019-03-18T08:12:00.509Z,9.38
2019-03-18T08:13:00.508Z,9.46
2019-03-18T08:14:00.478Z,9.47
2019-03-18T08:15:00.469Z,9.51
2019-03-18T08:16:00.463Z,9.58
2019-03-18T08:17:00.448Z,9.72
2019-03-18T08:18:00.440Z,9.76
2019-03-18T08:19:00.425Z,9.71
2019-03-18T08:20:03.058Z,9.75
2019-03-18T08:21:00.162Z,9.69
2019-03-18T08:22:00.393Z,9.84
2019-03-18T08:23:00.385Z,9.89
2019-03-18T08:24:00.373Z,9.87
2019-03-18T08:25:00.467Z,9.86
2019-03-18T08:26:00.356Z,9.84
2019-03-18T08:27:00.347Z,9.76
2019-03-18T08:28:00.339Z,9.78
2019-03-18T08:29:00.333Z,9.97
2019-03-18T08:30:00.389Z,9.91
2019-03-18T08:31:00.307Z,9.9
2019-03-18T08:32:00.297Z,10.08
2019-03-18T08:33:00.283Z,10.23
2019-03-18T08:34:00.278Z,10.25
2019-03-18T08:35:00.352Z,10.25
2019-03-18T08:36:00.254Z,10.32
2019-03-18T08:37:00.247Z,10.25
2019-03-18T08:38:00.240Z,10.33
2019-03-18T08:39:00.226Z,10.36
2019-03-18T08:40:00.377Z,10.33
2019-03-18T08:41:00.205Z,10.3
2019-03-18T08:42:00.202Z,10.36
2019-03-18T08:43:00.054Z,10.34
2019-03-18T08:44:00.182Z,10.41
2019-03-18T08:45:00.370Z,10.45
2019-03-18T08:46:00.190Z,10.59
2019-03-18T08:47:00.153Z,10.56
2019-03-18T08:48:00.148Z,10.53
2019-03-18T08:49:00.947Z,10.6
2019-03-18T08:50:00.121Z,10.66
2019-03-18T08:51:00.110Z,10.73
2019-03-18T08:52:00.100Z,10.74
2019-03-18T08:53:00.090Z,10.84
2019-03-18T08:54:00.085Z,10.89
2019-03-18T08:55:00.250Z,10.88
2019-03-18T08:56:00.065Z,11.03
2019-03-18T08:57:00.057Z,11.07
2019-03-18T08:58:00.057Z,11.24
2019-03-18T08:59:00.035Z,11.25
2019-03-18T09:00:00.033Z,11.37
2019-03-18T09:01:00.021Z,11.4
2019-03-18T09:02:00.008Z,11.44
2019-03-18T09:03:01.018Z,11.42
2019-03-18T09:03:59.998Z,11.51
2019-03-18T09:04:59.982Z,11.54
2019-03-18T09:05:59.975Z,11.54
2019-03-18T09:07:00.008Z,11.62
2019-03-18T09:07:59.966Z,11.62
2019-03-18T09:08:59.952Z,11.75
2019-03-18T09:09:59.945Z,11.64
2019-03-18T09:10:59.985Z,11.62
2019-03-18T09:11:59.944Z,11.54
2019-03-18T09:12:59.923Z,11.42
2019-03-18T09:13:59.931Z,11.37
2019-03-18T09:14:59.897Z,11.4
2019-03-18T09:15:59.893Z,11.28
2019-03-18T09:16:59.893Z,11.4
2019-03-18T09:17:59.878Z,11.32
2019-03-18T09:19:12.780Z,11.35
2019-03-18T09:19:59.858Z,11.39
2019-03-18T09:20:59.883Z,11.37
2019-03-18T09:21:59.842Z,11.39
2019-03-18T09:23:01.465Z,11.37
2019-03-18T09:23:59.825Z,11.27
2019-03-18T09:24:59.814Z,11.25
2019-03-18T09:25:59.813Z,11.17
2019-03-18T09:27:07.288Z,11.06
2019-03-18T09:27:59.788Z,10.97
2019-03-18T09:28:59.781Z,10.88
2019-03-18T09:29:59.774Z,10.85
2019-03-18T09:30:59.765Z,10.92
2019-03-18T09:31:59.516Z,10.74
2019-03-18T09:32:59.768Z,10.67
2019-03-18T09:33:59.733Z,10.74
2019-03-18T09:34:59.494Z,10.66
2019-03-18T09:35:59.715Z,10.68
2019-03-18T09:36:59.706Z,10.6
2019-03-18T09:37:59.694Z,10.48
2019-03-18T09:38:59.687Z,10.59
2019-03-18T09:39:59.678Z,10.7
2019-03-18T09:40:59.674Z,10.71
2019-03-18T09:41:59.663Z,10.74
2019-03-18T09:42:59.649Z,10.81
2019-03-18T09:43:59.658Z,10.76
2019-03-18T09:44:59.631Z,10.88
2019-03-18T09:45:59.620Z,10.91
2019-03-18T09:46:59.616Z,11.02
2019-03-18T09:48:01.124Z,11.11
2019-03-18T09:48:59.592Z,11.1
2019-03-18T09:49:59.651Z,11.06
2019-03-18T09:50:59.573Z,11.27
2019-03-18T09:51:59.563Z,11.24
2019-03-18T09:52:59.555Z,11.25
2019-03-18T09:53:59.547Z,11.35
2019-03-18T09:54:59.538Z,11.35
2019-03-18T09:55:59.528Z,11.21
2019-03-18T09:56:59.520Z,11.24
2019-03-18T09:57:59.546Z,11.21
2019-03-18T09:58:59.500Z,11.14
2019-03-18T09:59:59.493Z,11.07
2019-03-18T10:01:00.379Z,10.92
2019-03-18T10:01:59.727Z,10.99
2019-03-18T10:02:59.472Z,10.94
2019-03-18T10:03:59.462Z,10.99
2019-03-18T10:04:59.467Z,11.06
2019-03-18T10:05:59.440Z,11.07
2019-03-18T10:06:59.431Z,11.24
2019-03-18T10:07:59.430Z,11.27
2019-03-18T10:08:59.418Z,11.19
2019-03-18T10:09:59.401Z,11.35
2019-03-18T10:10:59.396Z,11.39
2019-03-18T10:11:59.393Z,11.44
2019-03-18T10:12:59.374Z,11.42
2019-03-18T10:13:59.371Z,11.46
2019-03-18T10:14:59.357Z,11.49
2019-03-18T10:15:59.348Z,11.51
2019-03-18T10:17:11.276Z,11.58
2019-03-18T10:17:59.343Z,11.7
2019-03-18T10:18:59.325Z,11.78
2019-03-18T10:19:59.316Z,11.83
2019-03-18T10:20:59.310Z,11.98
2019-03-18T10:21:59.297Z,11.9
2019-03-18T10:22:59.289Z,12.02
2019-03-18T10:23:59.287Z,12.01
2019-03-18T10:24:59.274Z,11.99
2019-03-18T10:25:59.423Z,11.95
2019-03-18T10:26:59.253Z,11.96
2019-03-18T10:27:59.246Z,11.79
2019-03-18T10:28:59.303Z,11.82
2019-03-18T10:29:59.240Z,11.64
2019-03-18T10:30:59.221Z,11.49
2019-03-18T10:31:59.212Z,11.39
2019-03-18T10:32:59.204Z,11.27
2019-03-18T10:33:59.196Z,11.39
2019-03-18T10:34:59.187Z,11.35
2019-03-18T10:35:59.186Z,11.24
2019-03-18T10:36:59.168Z,11.27
2019-03-18T10:37:59.160Z,11.27
2019-03-18T10:38:59.154Z,11.22
2019-03-18T10:39:58.899Z,11.32
2019-03-18T10:41:02.001Z,11.4
2019-03-18T10:41:59.131Z,11.4
2019-03-18T10:42:59.114Z,11.49
2019-03-18T10:43:58.864Z,11.57
2019-03-18T10:44:58.853Z,11.54
2019-03-18T10:45:59.091Z,11.58
2019-03-18T10:46:59.085Z,11.52
2019-03-18T10:47:59.833Z,11.73
2019-03-18T10:48:59.062Z,11.67
2019-03-18T10:49:59.049Z,11.76
2019-03-18T10:50:59.046Z,11.76
2019-03-18T10:51:59.051Z,11.67
2019-03-18T10:52:59.111Z,11.62
2019-03-18T10:53:59.052Z,11.55
2019-03-18T10:54:59.040Z,11.55
2019-03-18T10:56:10.049Z,11.54
2019-03-18T10:56:58.994Z,11.55
2019-03-18T10:57:58.991Z,11.61
2019-03-18T10:58:58.976Z,11.76
2019-03-18T11:00:01.097Z,11.9
2019-03-18T11:00:58.957Z,11.94
2019-03-18T11:01:58.949Z,12.12
2019-03-18T11:02:58.946Z,12.31
2019-03-18T11:03:58.946Z,12.45
2019-03-18T11:04:58.929Z,12.46
2019-03-18T11:05:58.915Z,12.53
2019-03-18T11:06:58.910Z,12.67
2019-03-18T11:07:58.903Z,12.79
2019-03-18T11:08:58.892Z,12.86
2019-03-18T11:09:58.643Z,12.86
2019-03-18T11:10:58.878Z,12.82
2019-03-18T11:11:58.865Z,12.85
2019-03-18T11:12:58.859Z,12.96
2019-03-18T11:13:58.855Z,12.95
2019-03-18T11:14:58.840Z,12.86
2019-03-18T11:15:58.834Z,13.03
2019-03-18T11:16:58.851Z,13.1
2019-03-18T11:17:58.820Z,13.15
2019-03-18T11:18:58.860Z,13.26
2019-03-18T11:20:03.431Z,13.25
2019-03-18T11:20:58.797Z,13.42
2019-03-18T11:21:58.792Z,13.55
2019-03-18T11:22:58.541Z,13.71
2019-03-18T11:23:58.784Z,13.71
2019-03-18T11:24:58.771Z,13.73
2019-03-18T11:25:58.762Z,13.71
2019-03-18T11:27:00.228Z,13.62
2019-03-18T11:27:58.820Z,13.59
2019-03-18T11:28:58.744Z,13.48
2019-03-18T11:29:58.491Z,13.41
2019-03-18T11:30:58.727Z,13.23
2019-03-18T11:31:58.726Z,13.25
2019-03-18T11:32:58.721Z,13.23
2019-03-18T11:33:58.709Z,13.14
2019-03-18T11:34:58.455Z,13.25
2019-03-18T11:36:00.512Z,13.22
2019-03-18T11:36:58.690Z,13.39
2019-03-18T11:37:58.689Z,13.38
2019-03-18T11:38:58.673Z,13.44
2019-03-18T11:39:58.427Z,13.52
2019-03-18T11:40:58.684Z,13.59
2019-03-18T11:41:58.658Z,13.66
2019-03-18T11:42:58.644Z,13.69
2019-03-18T11:43:58.645Z,13.73
2019-03-18T11:44:58.396Z,13.64
2019-03-18T11:45:58.632Z,13.63
2019-03-18T11:46:58.624Z,13.7
2019-03-18T11:47:58.614Z,13.7
2019-03-18T11:48:58.688Z,13.71
2019-03-18T11:50:09.877Z,13.7
2019-03-18T11:50:58.648Z,13.75
2019-03-18T11:51:58.583Z,13.75
2019-03-18T11:52:58.574Z,13.64
2019-03-18T11:53:58.576Z,13.6
2019-03-18T11:54:58.318Z,13.49
2019-03-18T11:55:58.577Z,13.51
2019-03-18T11:56:58.549Z,13.62
2019-03-18T11:57:58.299Z,13.62
2019-03-18T11:58:58.556Z,13.6
2019-03-18T11:59:58.539Z,13.63
2019-03-18T12:00:58.522Z,13.6
2019-03-18T12:01:58.513Z,13.55
2019-03-18T12:02:58.514Z,13.64
2019-03-18T12:03:58.498Z,13.52
2019-03-18T12:05:00.222Z,13.42
2019-03-18T12:05:58.485Z,13.36
2019-03-18T12:06:58.476Z,13.41
2019-03-18T12:07:58.472Z,13.3
2019-03-18T12:08:58.462Z,13.22
2019-03-18T12:09:58.303Z,13.23
2019-03-18T12:10:58.456Z,13.11
2019-03-18T12:11:58.442Z,13.14
2019-03-18T12:12:58.439Z,13.11
2019-03-18T12:13:58.430Z,12.97
2019-03-18T12:14:58.176Z,13
2019-03-18T12:15:58.415Z,13.03
2019-03-18T12:16:58.409Z,13.1
2019-03-18T12:17:58.506Z,13.25
2019-03-18T12:18:58.391Z,13.19
2019-03-18T12:19:58.146Z,13.25
2019-03-18T12:20:58.373Z,13.23
2019-03-18T12:21:58.366Z,13.25
2019-03-18T12:22:58.373Z,13.14
2019-03-18T12:23:58.354Z,13.12
2019-03-18T12:24:58.346Z,13.01
2019-03-18T12:25:58.347Z,12.95
2019-03-18T12:26:58.334Z,13.04
2019-03-18T12:27:58.329Z,13.05
2019-03-18T12:28:58.325Z,13
2019-03-18T12:29:58.315Z,13.01
2019-03-18T12:30:58.305Z,12.96
2019-03-18T12:31:58.293Z,12.82
2019-03-18T12:32:58.383Z,12.86
2019-03-18T12:33:59.953Z,12.87
2019-03-18T12:34:58.278Z,12.83
2019-03-18T12:35:58.308Z,13.05
2019-03-18T12:36:58.253Z,13.11
2019-03-18T12:37:58.268Z,13.11
2019-03-18T12:38:58.241Z,13.2
2019-03-18T12:39:58.238Z,13.22
2019-03-18T12:40:58.268Z,13.28
2019-03-18T12:41:58.222Z,13.28
2019-03-18T12:42:58.214Z,13.42
2019-03-18T12:43:58.206Z,13.38
2019-03-18T12:44:58.196Z,13.28
2019-03-18T12:45:58.187Z,13.12
2019-03-18T12:46:58.179Z,12.97
2019-03-18T12:47:58.171Z,12.77
2019-03-18T12:48:58.169Z,12.53
2019-03-18T12:49:58.166Z,12.24
2019-03-18T12:51:01.283Z,12.09
2019-03-18T12:51:58.140Z,11.78
2019-03-18T12:52:58.134Z,11.62
2019-03-18T12:53:58.134Z,11.35
2019-03-18T12:54:58.116Z,11.15
2019-03-18T12:55:58.111Z,10.88
2019-03-18T12:56:58.098Z,10.79
2019-03-18T12:57:58.093Z,10.7
2019-03-18T12:58:58.079Z,10.52
2019-03-18T12:59:58.071Z,10.42
2019-03-18T13:00:57.820Z,10.45
2019-03-18T13:01:58.053Z,10.38
2019-03-18T13:02:58.058Z,10.33
2019-03-18T13:03:58.037Z,10.34
2019-03-18T13:04:58.024Z,10.36
2019-03-18T13:05:58.015Z,10.41
2019-03-18T13:06:58.013Z,10.32
2019-03-18T13:07:58.003Z,10.23
2019-03-18T13:08:57.751Z,10.23
2019-03-18T13:09:57.994Z,10.17
2019-03-18T13:10:57.983Z,10.14
2019-03-18T13:11:57.978Z,10.08